Portada
METAR-TAF:

METAR-TAF

Aeropuertos :

Alpnach, Suiza

latitud: 46-56-19N, longitud: 8-17-03E, altitud: 440 m

Observación

El informe se hizo hace 17 minutos, a las 08:20 UTC
Viento 7 kt del este-noreste, variando entre norte y sureste
Temperatura 3°C
Humedad 65%
Presión 1021 hPa
Visibilidad 10 km o más
Escasas nubes a una altura de 2500 ft

METAR: LSMA 160820Z 07007KT 010V140 9999 FEW025 03/M03 Q1021 RMK BLU+

Hora: 10:37 (08:37 UTC)


TAF: falta

Observaciones y pronósticos meteorológicos de más de 4000 aeropuertos (mensajes METAR y TAF).

Los puntos amarillos y rojos representan las estaciones disponibles.

Ponga el ratón en el punto deseado para ver el nombre de la estación.

Haga clic para ver las observaciones y los pronósticos meteorológicos.

Para cambiar el mapa : haga clic en los botones verdes con una cruz de color negro para hacer un zoom, en el botón verde con un guión para alejar o en las flechas verdes para mapas adyacentes.


METAR-TAF: